DAL1502 KLAX-KATL
Flight info
| Callsign | DAL1502 |
|---|---|
| Flight time | N/A |
| Altitude | 37000 |
| Route | DOTSS2 CNERY BLH ANGRY KALSE CNX TURKI CDS ADM GRAZN MEM HUTCC KNSAW RUSSA GLAVN2 |
| Aircraft | B77W/H-SDE1E2E3FGHIJ2J3J4J5M1RWXY/LB1D1 |
Departure
| Time | N/A |
|---|---|
| Airport | Los Angeles International Airport (KLAX) |
Arrival
| Time | 2026-05-04 17:14 |
|---|---|
| Airport | Hartsfield Jackson Atlanta International Airport (KATL) |
| Time | Latitude | Longitude | Altitude | Speed | Heading |
|---|---|---|---|---|---|
| 2026-05-04 15:50 | 34.24118 | -95.59335 | 36980 ft | 572 kts | 81° |
| 2026-05-04 15:51 | 34.24231 | -95.49782 | 36978 ft | 572 kts | 81° |
| 2026-05-04 15:51 | 34.24336 | -95.40173 | 36970 ft | 571 kts | 81° |
| 2026-05-04 15:52 | 34.24434 | -95.30574 | 36983 ft | 571 kts | 81° |
| 2026-05-04 15:52 | 34.24524 | -95.20980 | 36972 ft | 571 kts | 81° |
| 2026-05-04 15:53 | 34.24606 | -95.11391 | 36974 ft | 570 kts | 81° |
| 2026-05-04 15:53 | 34.24682 | -95.01809 | 36981 ft | 570 kts | 82° |
| 2026-05-04 15:54 | 34.24752 | -94.92214 | 36976 ft | 570 kts | 82° |
| 2026-05-04 15:54 | 34.24811 | -94.82645 | 36988 ft | 569 kts | 82° |
| 2026-05-04 15:55 | 34.24864 | -94.73092 | 36986 ft | 568 kts | 82° |
| 2026-05-04 15:55 | 34.24909 | -94.63606 | 37005 ft | 569 kts | 82° |
| 2026-05-04 15:56 | 34.24948 | -94.54040 | 37005 ft | 568 kts | 82° |
| 2026-05-04 15:56 | 34.24979 | -94.44506 | 36995 ft | 566 kts | 82° |
| 2026-05-04 15:57 | 34.25306 | -94.35057 | 37008 ft | 556 kts | 75° |
| 2026-05-04 15:57 | 34.26761 | -94.26011 | 37003 ft | 545 kts | 66° |
| 2026-05-04 15:58 | 34.28559 | -94.17116 | 36979 ft | 546 kts | 66° |
| 2026-05-04 15:58 | 34.30333 | -94.08179 | 36986 ft | 546 kts | 67° |
| 2026-05-04 15:59 | 34.32057 | -93.99234 | 36990 ft | 546 kts | 68° |
| 2026-05-04 15:59 | 34.33758 | -93.90279 | 36983 ft | 546 kts | 68° |
| 2026-05-04 16:00 | 34.35443 | -93.81387 | 36983 ft | 546 kts | 68° |
| 2026-05-04 16:00 | 34.37138 | -93.72422 | 36978 ft | 546 kts | 68° |
| 2026-05-04 16:01 | 34.38819 | -93.63483 | 36978 ft | 544 kts | 68° |
| 2026-05-04 16:01 | 34.40490 | -93.54559 | 36980 ft | 543 kts | 69° |
| 2026-05-04 16:02 | 34.42156 | -93.45648 | 36987 ft | 543 kts | 69° |
| 2026-05-04 16:03 | 34.44649 | -93.32239 | 37019 ft | 543 kts | 69° |
| 2026-05-04 16:03 | 34.46299 | -93.23304 | 37039 ft | 543 kts | 69° |
| 2026-05-04 16:04 | 34.47932 | -93.14424 | 37033 ft | 543 kts | 69° |
| 2026-05-04 16:04 | 34.50384 | -93.01026 | 37028 ft | 543 kts | 69° |
| 2026-05-04 16:05 | 34.52013 | -92.92071 | 37021 ft | 544 kts | 69° |
| 2026-05-04 16:06 | 34.54441 | -92.78637 | 37017 ft | 542 kts | 69° |
| 2026-05-04 16:07 | 34.57642 | -92.60809 | 37018 ft | 540 kts | 70° |
| 2026-05-04 16:08 | 34.60806 | -92.43036 | 37019 ft | 539 kts | 70° |
| 2026-05-04 16:09 | 34.64717 | -92.20823 | 37021 ft | 537 kts | 71° |
| 2026-05-04 16:10 | 34.67805 | -92.03117 | 37019 ft | 534 kts | 71° |
| 2026-05-04 16:11 | 34.70857 | -91.85456 | 37029 ft | 533 kts | 72° |
| 2026-05-04 16:12 | 34.75355 | -91.59127 | 37039 ft | 530 kts | 73° |
| 2026-05-04 16:13 | 34.78319 | -91.41582 | 37037 ft | 529 kts | 73° |
| 2026-05-04 16:14 | 34.81246 | -91.24091 | 37029 ft | 526 kts | 74° |
| 2026-05-04 16:16 | 34.84846 | -91.02358 | 37012 ft | 525 kts | 74° |
| 2026-05-04 16:17 | 34.88403 | -90.80622 | 37009 ft | 522 kts | 75° |
| 2026-05-04 16:18 | 34.91219 | -90.63243 | 37017 ft | 523 kts | 75° |
| 2026-05-04 16:19 | 34.94685 | -90.41604 | 37014 ft | 520 kts | 76° |
| 2026-05-04 16:20 | 34.98111 | -90.19968 | 37020 ft | 520 kts | 76° |
| 2026-05-04 16:22 | 35.00914 | -89.98201 | 37025 ft | 523 kts | 88° |
| 2026-05-04 16:22 | 34.99758 | -89.84906 | 37033 ft | 528 kts | 99° |
| 2026-05-04 16:23 | 34.97787 | -89.71697 | 37027 ft | 527 kts | 99° |
| 2026-05-04 16:25 | 34.94018 | -89.45388 | 37031 ft | 525 kts | 99° |
| 2026-05-04 16:26 | 34.89585 | -89.14737 | 37031 ft | 524 kts | 99° |
| 2026-05-04 16:28 | 34.86376 | -88.92905 | 37038 ft | 523 kts | 100° |
| 2026-05-04 16:29 | 34.81830 | -88.62461 | 37042 ft | 523 kts | 100° |
| 2026-05-04 16:31 | 34.78760 | -88.42192 | 37048 ft | 522 kts | 101° |
| 2026-05-04 16:32 | 34.74757 | -88.16120 | 37050 ft | 523 kts | 101° |
| 2026-05-04 16:33 | 34.72059 | -87.98764 | 37059 ft | 522 kts | 101° |
| 2026-05-04 16:34 | 34.70020 | -87.85750 | 37014 ft | 519 kts | 101° |
| 2026-05-04 16:35 | 34.68029 | -87.73133 | 36674 ft | 502 kts | 101° |
| 2026-05-04 16:35 | 34.66051 | -87.60697 | 35760 ft | 499 kts | 102° |
| 2026-05-04 16:36 | 34.65389 | -87.56551 | 35426 ft | 499 kts | 102° |
| 2026-05-04 16:36 | 34.64067 | -87.48295 | 34797 ft | 498 kts | 101° |
| 2026-05-04 16:37 | 34.62719 | -87.40054 | 34141 ft | 496 kts | 102° |
| 2026-05-04 16:37 | 34.61976 | -87.35964 | 33713 ft | 496 kts | 103° |
| 2026-05-04 16:37 | 34.60433 | -87.27801 | 33115 ft | 496 kts | 103° |
| 2026-05-04 16:38 | 34.58903 | -87.19624 | 33090 ft | 498 kts | 103° |
| 2026-05-04 16:39 | 34.55259 | -86.99057 | 33028 ft | 491 kts | 102° |
| 2026-05-04 16:40 | 34.53847 | -86.91172 | 32828 ft | 471 kts | 107° |
| 2026-05-04 16:40 | 34.51851 | -86.83674 | 32367 ft | 460 kts | 110° |
| 2026-05-04 16:41 | 34.49855 | -86.76390 | 31612 ft | 457 kts | 109° |
| 2026-05-04 16:41 | 34.47007 | -86.65445 | 30688 ft | 449 kts | 109° |
| 2026-05-04 16:42 | 34.44191 | -86.54698 | 29693 ft | 443 kts | 109° |
| 2026-05-04 16:43 | 34.42333 | -86.47635 | 29029 ft | 438 kts | 109° |
| 2026-05-04 16:43 | 34.40493 | -86.40653 | 28369 ft | 433 kts | 109° |
| 2026-05-04 16:43 | 34.39578 | -86.37188 | 28050 ft | 430 kts | 109° |
| 2026-05-04 16:44 | 34.35973 | -86.23573 | 27093 ft | 421 kts | 109° |
| 2026-05-04 16:45 | 34.34190 | -86.16868 | 26517 ft | 417 kts | 109° |
| 2026-05-04 16:46 | 34.31566 | -86.06834 | 25481 ft | 415 kts | 108° |
| 2026-05-04 16:46 | 34.29857 | -86.00212 | 24925 ft | 410 kts | 108° |
| 2026-05-04 16:47 | 34.28158 | -85.93661 | 24360 ft | 407 kts | 108° |
| 2026-05-04 16:47 | 34.26467 | -85.87165 | 23802 ft | 403 kts | 108° |
| 2026-05-04 16:48 | 34.23950 | -85.77538 | 22909 ft | 397 kts | 108° |
| 2026-05-04 16:48 | 34.23118 | -85.74363 | 22625 ft | 395 kts | 108° |
| 2026-05-04 16:49 | 34.21468 | -85.68070 | 22051 ft | 391 kts | 108° |
| 2026-05-04 16:49 | 34.19831 | -85.61846 | 21480 ft | 387 kts | 108° |
| 2026-05-04 16:50 | 34.18217 | -85.55722 | 20836 ft | 382 kts | 108° |
| 2026-05-04 16:50 | 34.16607 | -85.49629 | 20058 ft | 380 kts | 108° |
| 2026-05-04 16:51 | 34.15006 | -85.43575 | 19290 ft | 377 kts | 108° |
| 2026-05-04 16:51 | 34.14208 | -85.40568 | 18893 ft | 376 kts | 108° |
| 2026-05-04 16:51 | 34.12637 | -85.34552 | 18053 ft | 375 kts | 107° |
| 2026-05-04 16:52 | 34.11081 | -85.28527 | 17124 ft | 382 kts | 107° |
| 2026-05-04 16:52 | 34.10286 | -85.25462 | 16711 ft | 383 kts | 107° |
| 2026-05-04 16:53 | 34.08675 | -85.19250 | 16395 ft | 387 kts | 107° |
| 2026-05-04 16:53 | 34.06296 | -85.10124 | 15355 ft | 374 kts | 107° |
| 2026-05-04 16:54 | 34.05511 | -85.07145 | 15001 ft | 367 kts | 109° |
| 2026-05-04 16:55 | 33.99028 | -84.98894 | 13501 ft | 340 kts | 141° |
| 2026-05-04 16:55 | 33.95451 | -84.95216 | 12738 ft | 337 kts | 140° |
| 2026-05-04 16:56 | 33.91920 | -84.91556 | 12032 ft | 332 kts | 141° |
| 2026-05-04 16:56 | 33.86785 | -84.86242 | 11310 ft | 319 kts | 140° |
| 2026-05-04 16:57 | 33.85108 | -84.84509 | 11096 ft | 316 kts | 140° |
| 2026-05-04 16:57 | 33.81785 | -84.81077 | 10990 ft | 316 kts | 140° |
| 2026-05-04 16:58 | 33.76792 | -84.75923 | 10964 ft | 307 kts | 140° |
| 2026-05-04 16:58 | 33.75183 | -84.74261 | 10779 ft | 302 kts | 140° |
| 2026-05-04 16:59 | 33.73249 | -84.70099 | 10190 ft | 291 kts | 93° |
| 2026-05-04 17:00 | 33.73282 | -84.60530 | 8998 ft | 284 kts | 88° |
| 2026-05-04 17:00 | 33.73295 | -84.53465 | 8114 ft | 280 kts | 88° |
| 2026-05-04 17:01 | 33.73298 | -84.48811 | 7564 ft | 277 kts | 89° |
| 2026-05-04 17:01 | 33.73296 | -84.44218 | 7055 ft | 272 kts | 89° |
| 2026-05-04 17:02 | 33.73296 | -84.39662 | 6988 ft | 275 kts | 89° |
| 2026-05-04 17:02 | 33.73296 | -84.35081 | 6981 ft | 274 kts | 89° |
| 2026-05-04 17:03 | 33.73295 | -84.32794 | 6977 ft | 274 kts | 89° |
| 2026-05-04 17:03 | 33.73295 | -84.30503 | 6981 ft | 274 kts | 89° |
| 2026-05-04 17:03 | 33.73299 | -84.25912 | 6970 ft | 275 kts | 88° |
| 2026-05-04 17:04 | 33.73302 | -84.21359 | 6976 ft | 274 kts | 89° |
| 2026-05-04 17:04 | 33.73309 | -84.16767 | 6981 ft | 276 kts | 89° |
| 2026-05-04 17:05 | 33.73312 | -84.12160 | 6982 ft | 276 kts | 89° |
| 2026-05-04 17:05 | 33.73316 | -84.07554 | 6977 ft | 275 kts | 89° |
| 2026-05-04 17:06 | 33.73273 | -84.02983 | 6899 ft | 272 kts | 98° |
| 2026-05-04 17:06 | 33.72535 | -84.00897 | 6621 ft | 277 kts | 130° |
| 2026-05-04 17:07 | 33.69174 | -83.99197 | 6090 ft | 266 kts | 186° |
| 2026-05-04 17:07 | 33.67984 | -83.99479 | 5925 ft | 261 kts | 201° |
| 2026-05-04 17:07 | 33.65919 | -84.00851 | 5619 ft | 252 kts | 229° |
| 2026-05-04 17:07 | 33.65113 | -84.02698 | 5502 ft | 254 kts | 261° |
| 2026-05-04 17:08 | 33.64968 | -84.04819 | 5240 ft | 256 kts | 270° |
| 2026-05-04 17:08 | 33.64963 | -84.09004 | 5057 ft | 243 kts | 271° |
| 2026-05-04 17:08 | 33.64971 | -84.11007 | 4992 ft | 236 kts | 270° |
| 2026-05-04 17:09 | 33.64958 | -84.12902 | 4962 ft | 224 kts | 270° |
| 2026-05-04 17:09 | 33.64942 | -84.14764 | 4933 ft | 220 kts | 271° |
| 2026-05-04 17:09 | 33.64963 | -84.16563 | 5005 ft | 217 kts | 270° |
| 2026-05-04 17:10 | 33.64954 | -84.20298 | 4352 ft | 229 kts | 271° |
| 2026-05-04 17:10 | 33.64943 | -84.26074 | 3469 ft | 220 kts | 271° |
| 2026-05-04 17:11 | 33.64952 | -84.27945 | 3102 ft | 222 kts | 271° |
| 2026-05-04 17:11 | 33.64958 | -84.29763 | 2788 ft | 212 kts | 270° |
| 2026-05-04 17:11 | 33.64958 | -84.33063 | 2297 ft | 187 kts | 270° |
| 2026-05-04 17:12 | 33.64957 | -84.34569 | 2061 ft | 173 kts | 270° |
| 2026-05-04 17:12 | 33.64954 | -84.37155 | 1624 ft | 144 kts | 272° |
| 2026-05-04 17:13 | 33.64950 | -84.40840 | 1067 ft | 150 kts | 272° |
| 2026-05-04 17:14 | 33.64891 | -84.43269 | 1011 ft | 13 kts | 242° |
| 2026-05-04 17:14 | 33.64853 | -84.43367 | 1011 ft | 13 kts | 251° |
| 2026-05-04 17:14 | 33.64784 | -84.43556 | 1011 ft | 14 kts | 209° |
| 2026-05-04 17:15 | 33.64702 | -84.43612 | 1011 ft | 14 kts | 210° |
| 2026-05-04 17:15 | 33.64552 | -84.43666 | 1011 ft | 10 kts | 125° |
| 2026-05-04 17:16 | 33.64542 | -84.43461 | 1011 ft | 13 kts | 89° |
| 2026-05-04 17:16 | 33.64544 | -84.43138 | 1012 ft | 13 kts | 89° |
| 2026-05-04 17:17 | 33.64544 | -84.43031 | 1012 ft | 13 kts | 90° |
| 2026-05-04 17:17 | 33.64542 | -84.42708 | 1011 ft | 13 kts | 90° |
| 2026-05-04 17:18 | 33.64542 | -84.42600 | 1011 ft | 13 kts | 90° |
| 2026-05-04 17:18 | 33.64543 | -84.42421 | 1011 ft | 13 kts | 90° |
| 2026-05-04 17:19 | 33.64484 | -84.42236 | 1011 ft | 11 kts | 175° |
| 2026-05-04 17:19 | 33.64331 | -84.42233 | 1011 ft | 10 kts | 180° |
| 2026-05-04 17:20 | 33.64259 | -84.42239 | 1011 ft | 10 kts | 180° |
| 2026-05-04 17:20 | 33.64212 | -84.42267 | 1011 ft | 4 kts | 227° |
| 2026-05-04 17:20 | 33.64198 | -84.42294 | 1011 ft | 4 kts | 247° |
| 2026-05-04 17:21 | 33.64196 | -84.42303 | 1011 ft | 0 kts | 251° |
| 2026-05-04 17:23 | 33.64173 | -84.42329 | 1011 ft | 3 kts | 195° |
| 2026-05-04 17:23 | 33.64149 | -84.42334 | 1011 ft | 4 kts | 185° |
| 2026-05-04 17:23 | 33.64123 | -84.42335 | 1011 ft | 0 kts | 180° |